Airfield :
LOGIN :

Register | Disclaimer

   EN    FR    IT 

 










Legend :    VFR   Marginal VFR   IFR   Intensive IFR   Very Intensive IFR
Visi :
Ceiling :
>= 8 km
>= 3000ft
5 to 8 km
1000 to 3000 ft
1500m to 5 km
500 to 1000 ft
800 to 1500m
200 to 500 ft
< 800m
< 200 ft
Symbols :   Thunderstorms  Fog  Heavy snow  Heavy precipitations  Wind > 20 kt
SIGMETs :     Misc.  Thunderstorms  Icing  Turbulence  Mountain Waves  Volcanic Ashes






- Airport Elevation : 1161 ft
- IATA code : RJL


LELO - Logroño-Agoncillo

CURRENT METAR :
  • 251630Z AUTO 09008KT 050V120 9999 SCT013 SCT047 BKN056 09/07 Q1016

EXPIRED METARs :
  • 251600Z AUTO 09010KT 050V110 9999 BKN058 09/07 Q1016
  • 251530Z AUTO 09011KT 060V120 9999 SCT050 BKN070 09/07 Q1016
  • 251500Z AUTO 09011KT 060V120 9999 SCT011 BKN041 BKN065 08/07 Q1016
  • 251430Z AUTO 09010KT 060V120 9999 BKN010 OVC067 08/07 Q1017
  • 251400Z AUTO 09011KT 9999 BKN009 08/07 Q1017
  • 251330Z AUTO 09011KT 060V120 9999 BKN009 BKN039 08/07 Q1017

TAF TAF LELO
Valid from the 25 at 15:00 until the 26 at 00:00 UTC


251400Z 2515/2524 10009KT 8000 BKN007 BKN035
TEMPO 2515/2518 3000 RA BR BKN008
PROB40
TEMPO 2521/2524 1000 BCFG VV003



MET'MAP, your aeronautical weather chart ! - Copyright ORBIFLY December 2007 - Disclaimer

ORBIFLY MET'MAP TEAM :

Programming & Development : Alexandra Zaïnal
Concept & original design : Baudouin d'Aumeries
Assistance for programming : Marc-Olivier Méhu
Technical & hardware support : Manuel Goepfert

Contact : metmap@orbifly.com




SOURCES & CREDITS :

   NOAA